Time;durP1;ratioP1;P1;durP2;ratioP2;P2;SDS_P1;SDS_P2;PMS_P1;PMS_P2;Temp;Humidity;BMP_temperature;BMP_pressure;BME280_temperature;BME280_humidity;BME280_pressure;Samples;Min_cycle;Max_cycle;Signal;HPM_P1;HPM_P2
2023/05/21 01:15:02;;;;;;;5.28;2.38;;;14.60;99.90;;;;;;4069554;29;20108;-82
2023/05/21 01:17:05;;;;;;;6.43;2.63;;;14.70;99.90;;;;;;4068973;29;20043;-82
2023/05/21 01:19:09;;;;;;;6.00;2.95;;;14.70;99.90;;;;;;4068996;29;20044;-82
2023/05/21 01:21:12;;;;;;;4.78;2.67;;;14.60;99.90;;;;;;4069647;29;20511;-82
2023/05/21 01:23:16;;;;;;;5.30;2.50;;;14.60;99.90;;;;;;4070055;29;20126;-82
2023/05/21 01:25:17;;;;;;;4.65;2.60;;;14.70;99.90;;;;;;4068995;29;20099;-82
2023/05/21 01:27:18;;;;;;;8.45;3.40;;;14.60;99.90;;;;;;4052750;29;20037;-82
2023/05/21 01:29:19;;;;;;;5.53;2.15;;;14.60;99.90;;;;;;4069636;29;20044;-83
2023/05/21 01:31:28;;;;;;;5.78;2.90;;;14.60;99.90;;;;;;4069841;29;20425;-83
2023/05/21 01:33:32;;;;;;;;;;;14.60;99.90;;;;;;4070666;29;20051;-82
2023/05/21 01:35:34;;;;;;;7.43;2.70;;;14.60;99.90;;;;;;4069893;29;19923;-83
2023/05/21 01:37:45;;;;;;;13.18;3.50;;;14.60;99.90;;;;;;4052964;29;20072;-82
2023/05/21 01:39:55;;;;;;;7.28;2.88;;;14.60;99.90;;;;;;4070073;29;20052;-83
2023/05/21 01:41:56;;;;;;;5.97;2.88;;;14.60;99.90;;;;;;4067622;29;20052;-83
2023/05/21 01:43:58;;;;;;;3.83;2.78;;;14.50;99.90;;;;;;4069897;29;20067;-83
2023/05/21 01:45:59;;;;;;;5.07;2.97;;;14.60;99.90;;;;;;4052627;29;20139;-84
2023/05/21 01:48:01;;;;;;;6.82;2.95;;;14.60;99.90;;;;;;4069355;29;20058;-83
2023/05/21 01:50:03;;;;;;;6.03;3.53;;;14.50;99.90;;;;;;4069110;29;20052;-83
2023/05/21 01:52:04;;;;;;;6.43;3.50;;;14.50;99.90;;;;;;4069942;29;20119;-83
2023/05/21 01:54:06;;;;;;;11.32;4.13;;;14.50;99.90;;;;;;4052639;29;20053;-82
2023/05/21 01:56:07;;;;;;;4.57;3.00;;;14.50;99.90;;;;;;4069411;29;20095;-83
2023/05/21 01:58:08;;;;;;;7.00;3.95;;;14.50;99.90;;;;;;4069139;29;20083;-82
2023/05/21 02:00:10;;;;;;;8.18;3.35;;;14.50;99.90;;;;;;4051636;29;20493;-84
2023/05/21 02:02:11;;;;;;;6.88;3.15;;;14.50;99.90;;;;;;4068102;29;20044;-83
2023/05/21 02:04:12;;;;;;;6.60;3.50;;;14.50;99.90;;;;;;4068305;29;20127;-83
2023/05/21 02:06:13;;;;;;;6.65;3.28;;;14.50;99.90;;;;;;4068940;29;20531;-82
2023/05/21 02:08:14;;;;;;;4.75;2.92;;;14.50;99.90;;;;;;4068461;29;20052;-83
2023/05/21 02:10:14;;;;;;;6.05;3.22;;;14.40;99.90;;;;;;4068259;29;20058;-82
2023/05/21 02:12:15;;;;;;;7.75;3.28;;;14.40;99.90;;;;;;4082195;29;20154;-82
2023/05/21 02:14:16;;;;;;;5.40;3.25;;;14.40;99.90;;;;;;4082607;29;20060;-83
2023/05/21 02:16:18;;;;;;;6.57;3.58;;;14.40;99.90;;;;;;4084312;29;20059;-83
2023/05/21 02:18:20;;;;;;;8.68;3.78;;;14.40;99.90;;;;;;4083441;29;20047;-83
2023/05/21 02:20:21;;;;;;;5.68;3.72;;;14.30;99.90;;;;;;4084644;29;20047;-82
2023/05/21 02:22:23;;;;;;;8.27;3.40;;;14.30;99.90;;;;;;4085629;29;20047;-83
2023/05/21 02:24:24;;;;;;;6.20;3.00;;;14.30;99.90;;;;;;4085296;29;20484;-83
2023/05/21 02:26:27;;;;;;;6.28;3.33;;;13.80;99.90;;;;;;4084799;29;20058;-82
2023/05/21 02:28:28;;;;;;;7.20;4.07;;;14.20;99.90;;;;;;4083869;29;20099;-83
2023/05/21 02:30:29;;;;;;;6.72;3.22;;;14.20;99.90;;;;;;4084228;29;20119;-83
2023/05/21 02:32:33;;;;;;;8.43;3.30;;;14.10;99.90;;;;;;4083673;29;20051;-83
2023/05/21 02:34:36;;;;;;;6.80;3.28;;;14.10;99.90;;;;;;4067185;29;20063;-82
2023/05/21 02:36:36;;;;;;;7.28;3.75;;;14.00;99.90;;;;;;4075778;29;20062;-83
2023/05/21 02:38:42;;;;;;;7.60;3.97;;;14.00;99.90;;;;;;4084696;29;20055;-83
2023/05/21 02:40:44;;;;;;;7.40;3.15;;;14.00;99.90;;;;;;4067791;29;20552;-82
2023/05/21 02:42:45;;;;;;;7.47;3.90;;;13.90;99.90;;;;;;4083939;29;20098;-82
2023/05/21 02:44:47;;;;;;;7.57;3.20;;;13.90;99.90;;;;;;4083955;29;20043;-83
2023/05/21 02:46:47;;;;;;;5.22;3.10;;;13.80;99.90;;;;;;4084330;29;20407;-84
2023/05/21 02:48:48;;;;;;;9.88;3.80;;;13.80;99.90;;;;;;4084612;29;20071;-83
2023/05/21 02:50:49;;;;;;;4.60;3.20;;;13.80;99.90;;;;;;4084666;29;20095;-84
2023/05/21 02:52:49;;;;;;;5.70;3.45;;;13.70;99.90;;;;;;4084705;29;20111;-84
2023/05/21 02:54:51;;;;;;;7.60;3.38;;;13.70;99.90;;;;;;4085085;29;20039;-83
2023/05/21 02:56:51;;;;;;;7.18;3.78;;;13.70;99.90;;;;;;4067910;29;20040;-84
2023/05/21 02:58:53;;;;;;;7.00;4.00;;;13.70;99.90;;;;;;4085640;29;20044;-83
2023/05/21 03:00:54;;;;;;;7.40;3.67;;;13.70;99.90;;;;;;4084145;29;20051;-84
2023/05/21 03:02:54;;;;;;;7.70;3.92;;;13.70;99.90;;;;;;4085230;29;20130;-84
2023/05/21 03:04:55;;;;;;;7.40;3.45;;;13.70;99.90;;;;;;4084374;29;20079;-84
2023/05/21 03:06:56;;;;;;;7.35;3.75;;;13.70;99.90;;;;;;4083581;29;20532;-84
2023/05/21 03:08:56;;;;;;;7.82;3.97;;;13.70;99.90;;;;;;4084759;29;20126;-83
2023/05/21 03:10:57;;;;;;;6.45;3.70;;;13.70;99.90;;;;;;4087007;29;20047;-84
2023/05/21 03:12:58;;;;;;;11.02;4.22;;;13.70;99.90;;;;;;4087510;29;20046;-83
2023/05/21 03:14:59;;;;;;;6.45;3.85;;;13.70;99.90;;;;;;4087480;29;20135;-84
2023/05/21 03:17:06;;;;;;;8.80;4.22;;;13.70;99.90;;;;;;4087387;29;20031;-84
2023/05/21 03:19:09;;;;;;;8.77;3.78;;;13.70;99.90;;;;;;4086702;29;20048;-84
2023/05/21 03:21:12;;;;;;;10.98;3.28;;;13.70;99.90;;;;;;4087068;29;20146;-84
2023/05/21 03:23:13;;;;;;;6.95;3.22;;;13.70;99.90;;;;;;4070156;29;20083;-83
2023/05/21 03:25:14;;;;;;;9.52;3.55;;;13.70;99.90;;;;;;4086097;29;20044;-83
2023/05/21 03:27:15;;;;;;;8.90;3.65;;;13.70;99.90;;;;;;4070091;29;20110;-84
2023/05/21 03:29:15;;;;;;;8.20;3.72;;;13.70;99.90;;;;;;4086753;29;20600;-84
2023/05/21 03:31:16;;;;;;;9.55;3.47;;;13.70;99.90;;;;;;4070343;29;20055;-84
2023/05/21 03:33:17;;;;;;;14.63;4.60;;;13.70;99.90;;;;;;4085861;29;20086;-82
2023/05/21 03:35:18;;;;;;;10.13;4.47;;;13.70;99.90;;;;;;4087162;29;20047;-83
2023/05/21 03:37:18;;;;;;;8.07;3.95;;;13.60;99.90;;;;;;4069392;29;20059;-82
2023/05/21 03:39:19;;;;;;;7.55;4.25;;;13.60;99.90;;;;;;4086375;29;20054;-83
2023/05/21 03:41:20;;;;;;;9.90;3.47;;;13.70;99.90;;;;;;4085798;29;20044;-83
2023/05/21 03:43:20;;;;;;;7.75;4.05;;;13.60;99.90;;;;;;4085778;29;20484;-84
2023/05/21 03:45:21;;;;;;;8.85;3.63;;;13.60;99.90;;;;;;4069114;29;20131;-83
2023/05/21 03:47:22;;;;;;;18.95;4.55;;;13.60;99.90;;;;;;4085641;29;20051;-84
2023/05/21 03:49:24;;;;;;;7.55;4.15;;;13.70;99.90;;;;;;4086102;29;20511;-83
2023/05/21 03:51:26;;;;;;;8.30;3.42;;;13.70;99.90;;;;;;4069468;29;20051;-84
2023/05/21 03:53:26;;;;;;;8.32;3.40;;;13.60;99.90;;;;;;4086153;29;20086;-84
2023/05/21 03:55:28;;;;;;;7.68;3.65;;;13.70;99.90;;;;;;4086463;29;20044;-84
2023/05/21 03:57:28;;;;;;;9.13;3.70;;;13.70;99.90;;;;;;4085873;29;20500;-84
2023/05/21 03:59:29;;;;;;;7.57;3.88;;;13.70;99.90;;;;;;4071451;29;20063;-84
2023/05/21 04:01:31;;;;;;;7.95;3.30;;;13.70;99.90;;;;;;4086521;29;20040;-83
2023/05/21 04:03:34;;;;;;;10.48;4.80;;;13.70;99.90;;;;;;4070965;29;20048;-84
2023/05/21 04:05:34;;;;;;;8.90;3.67;;;13.70;99.90;;;;;;4086120;29;20099;-84
2023/05/21 04:07:37;;;;;;;7.22;3.58;;;13.70;99.90;;;;;;4087052;29;20080;-84
2023/05/21 04:09:37;;;;;;;9.27;3.28;;;13.70;99.90;;;;;;4087409;29;20539;-85
2023/05/21 04:11:38;;;;;;;11.57;3.63;;;13.70;99.90;;;;;;4086142;29;20153;-84
2023/05/21 04:13:39;;;;;;;11.88;3.30;;;13.70;99.90;;;;;;4064933;29;20056;-84
2023/05/21 04:15:40;;;;;;;6.05;3.17;;;13.70;99.90;;;;;;4052612;29;20060;-84
2023/05/21 04:17:44;;;;;;;5.03;3.13;;;13.70;99.90;;;;;;4054490;29;20055;-84
2023/05/21 04:19:45;;;;;;;7.72;2.85;;;13.70;99.90;;;;;;4053240;29;20063;-84
2023/05/21 04:21:46;;;;;;;5.88;3.10;;;13.70;99.90;;;;;;4070422;29;20055;-84
2023/05/21 04:23:47;;;;;;;8.45;2.90;;;13.80;99.90;;;;;;4070935;29;20044;-83
2023/05/21 04:25:49;;;;;;;7.90;3.03;;;13.80;99.90;;;;;;4069400;29;20082;-84
2023/05/21 04:27:50;;;;;;;8.32;3.42;;;13.80;99.90;;;;;;4071159;29;20119;-84
2023/05/21 04:29:50;;;;;;;5.22;2.67;;;13.70;99.90;;;;;;4069816;29;20386;-84
2023/05/21 04:31:51;;;;;;;6.95;2.67;;;13.80;99.90;;;;;;4070908;29;20053;-84
2023/05/21 04:33:52;;;;;;;8.18;2.50;;;13.80;99.90;;;;;;4069212;29;20048;-82
2023/05/21 04:35:52;;;;;;;8.48;3.20;;;13.80;99.90;;;;;;4070542;29;20087;-82
2023/05/21 04:37:53;;;;;;;6.45;3.00;;;13.80;99.90;;;;;;4069444;29;20083;-83
2023/05/21 04:39:55;;;;;;;6.53;2.60;;;13.80;99.90;;;;;;4069624;29;20494;-83
2023/05/21 04:41:56;;;;;;;9.40;2.90;;;13.80;99.90;;;;;;4069835;29;20047;-83
2023/05/21 04:43:57;;;;;;;7.45;2.80;;;13.80;99.90;;;;;;4070237;29;20504;-83
2023/05/21 04:45:58;;;;;;;8.38;3.35;;;13.80;99.90;;;;;;4053574;29;20491;-83
2023/05/21 04:47:59;;;;;;;6.78;2.72;;;13.80;99.90;;;;;;4069243;29;20052;-83
2023/05/21 04:50:01;;;;;;;10.18;3.20;;;13.90;99.90;;;;;;4069627;29;20496;-83
2023/05/21 04:52:01;;;;;;;6.45;2.70;;;13.80;99.90;;;;;;4068870;29;20543;-83
2023/05/21 04:54:03;;;;;;;7.20;3.00;;;13.90;99.90;;;;;;4070097;29;20055;-83
2023/05/21 04:56:04;;;;;;;5.82;2.78;;;13.90;99.90;;;;;;4069326;29;20048;-82
2023/05/21 04:58:06;;;;;;;8.05;2.92;;;13.90;99.90;;;;;;4068905;29;20055;-83
2023/05/21 05:00:07;;;;;;;4.30;2.33;;;14.00;99.90;;;;;;4068832;29;20080;-82
2023/05/21 05:02:08;;;;;;;10.73;2.92;;;14.00;99.90;;;;;;4069008;29;20048;-83
2023/05/21 05:04:08;;;;;;;7.78;2.65;;;14.00;99.90;;;;;;4069549;29;20054;-83
2023/05/21 05:06:09;;;;;;;8.45;2.97;;;14.00;99.90;;;;;;4068692;29;20055;-83
2023/05/21 05:08:10;;;;;;;6.70;2.63;;;14.00;99.90;;;;;;4069207;29;20149;-83
2023/05/21 05:10:11;;;;;;;8.68;3.10;;;14.00;99.90;;;;;;4069422;29;20048;-83
2023/05/21 05:12:11;;;;;;;9.10;2.50;;;14.00;99.90;;;;;;4070208;29;20040;-83
2023/05/21 05:14:12;;;;;;;8.30;2.75;;;14.10;99.90;;;;;;4047181;29;20060;-82
2023/05/21 05:16:16;;;;;;;9.93;3.22;;;14.10;99.90;;;;;;4068316;29;20115;-83
2023/05/21 05:18:16;;;;;;;7.38;3.20;;;14.20;99.90;;;;;;4069443;29;20475;-83
2023/05/21 05:20:17;;;;;;;7.80;2.65;;;14.20;99.90;;;;;;4051864;29;20101;-81
2023/05/21 05:22:18;;;;;;;6.80;2.83;;;14.30;99.90;;;;;;4066613;29;20047;-82
2023/05/21 05:24:19;;;;;;;7.72;3.35;;;14.30;99.90;;;;;;4068125;29;20055;-83
2023/05/21 05:26:20;;;;;;;6.03;2.45;;;14.30;99.90;;;;;;4068702;29;20536;-83
2023/05/21 05:28:21;;;;;;;6.40;3.13;;;14.40;99.90;;;;;;4069886;29;20779;-83
2023/05/21 05:30:21;;;;;;;8.02;2.78;;;14.40;99.90;;;;;;4069519;29;20056;-83
2023/05/21 05:32:22;;;;;;;8.60;3.00;;;14.40;99.90;;;;;;4068944;29;20048;-82
2023/05/21 05:34:23;;;;;;;7.28;2.47;;;14.50;99.90;;;;;;4069956;29;20122;-82
2023/05/21 05:36:23;;;;;;;6.55;2.50;;;14.60;99.90;;;;;;4070033;29;20107;-82
2023/05/21 05:38:25;;;;;;;6.28;2.40;;;14.70;99.90;;;;;;4069117;29;20131;-82
2023/05/21 05:40:26;;;;;;;8.75;3.05;;;14.70;99.90;;;;;;4069929;29;20044;-82
2023/05/21 05:42:27;;;;;;;9.25;3.15;;;14.80;99.90;;;;;;4069138;29;20059;-82
2023/05/21 05:44:28;;;;;;;5.15;3.17;;;14.80;99.90;;;;;;4070223;29;20059;-82
2023/05/21 05:46:28;;;;;;;6.95;2.33;;;14.90;99.90;;;;;;4069808;29;20048;-82
2023/05/21 05:48:29;;;;;;;9.00;2.90;;;15.00;99.90;;;;;;4070154;29;20492;-83
2023/05/21 05:50:30;;;;;;;6.18;2.70;;;15.00;99.90;;;;;;4068764;29;20047;-83
2023/05/21 05:52:31;;;;;;;6.55;2.05;;;15.00;99.90;;;;;;4070244;29;20052;-83
2023/05/21 05:54:33;;;;;;;9.63;3.47;;;15.10;99.90;;;;;;4069730;29;20048;-82
2023/05/21 05:56:34;;;;;;;5.65;3.30;;;15.10;99.90;;;;;;4069607;29;20044;-83
2023/05/21 05:58:34;;;;;;;6.78;2.72;;;15.20;99.90;;;;;;4068810;29;20108;-83
2023/05/21 06:00:35;;;;;;;7.80;2.60;;;15.20;99.90;;;;;;4069051;29;20077;-83
2023/05/21 06:02:36;;;;;;;6.70;2.67;;;15.20;99.90;;;;;;4045805;29;20067;-83
2023/05/21 06:04:38;;;;;;;7.53;2.30;;;15.20;99.90;;;;;;4069312;29;20059;-82
2023/05/21 06:06:38;;;;;;;4.80;2.63;;;15.30;99.90;;;;;;4068391;29;20040;-83
2023/05/21 06:08:39;;;;;;;6.55;3.03;;;15.30;99.90;;;;;;4051934;29;20089;-82
2023/05/21 06:10:40;;;;;;;5.30;2.40;;;15.30;99.90;;;;;;4061738;29;20044;-82
2023/05/21 06:12:41;;;;;;;7.28;3.30;;;15.40;99.90;;;;;;4068137;29;20586;-82
2023/05/21 06:14:44;;;;;;;6.03;2.83;;;15.40;99.90;;;;;;4080480;29;20123;-83
2023/05/21 06:16:45;;;;;;;7.53;2.83;;;15.40;99.90;;;;;;4086099;29;20492;-83
2023/05/21 06:18:46;;;;;;;5.95;3.05;;;15.50;99.90;;;;;;4083934;29;20047;-82
2023/05/21 06:20:46;;;;;;;9.38;2.90;;;15.60;99.90;;;;;;4060789;29;20051;-83
2023/05/21 06:22:47;;;;;;;7.18;3.08;;;15.50;99.90;;;;;;4068516;29;20563;-83
2023/05/21 06:24:48;;;;;;;8.18;2.78;;;15.50;99.90;;;;;;4069842;29;20051;-83
2023/05/21 06:26:48;;;;;;;6.47;2.45;;;15.50;99.90;;;;;;4068459;29;20051;-83
2023/05/21 06:28:49;;;;;;;9.40;3.42;;;15.60;99.90;;;;;;4068644;29;20056;-83
2023/05/21 06:30:51;;;;;;;9.18;2.35;;;15.60;99.90;;;;;;4051718;29;20445;-85
2023/05/21 06:32:52;;;;;;;8.13;2.60;;;15.70;99.90;;;;;;4068733;29;20180;-85
2023/05/21 06:34:52;;;;;;;12.23;4.72;;;15.80;99.90;;;;;;4083568;29;20396;-85
2023/05/21 06:36:54;;;;;;;8.63;3.20;;;15.90;99.90;;;;;;4067994;29;20151;-84
2023/05/21 06:38:55;;;;;;;6.00;2.80;;;15.90;99.90;;;;;;4084421;29;20051;-85
2023/05/21 06:40:57;;;;;;;11.10;2.83;;;15.70;99.90;;;;;;4084892;29;20075;-85
2023/05/21 06:42:58;;;;;;;9.23;2.78;;;15.90;99.90;;;;;;4084873;29;20450;-84
2023/05/21 06:45:00;;;;;;;7.60;2.83;;;15.80;99.90;;;;;;4087106;29;20061;-85
2023/05/21 06:47:01;;;;;;;8.10;3.17;;;16.00;99.90;;;;;;4087421;29;20048;-85
2023/05/21 06:49:02;;;;;;;8.32;2.60;;;16.00;99.90;;;;;;4070352;29;20052;-85
2023/05/21 06:51:03;;;;;;;7.35;2.33;;;16.00;99.90;;;;;;4086190;29;20480;-83
2023/05/21 06:53:04;;;;;;;9.80;3.40;;;16.10;99.90;;;;;;4086525;29;20111;-84
2023/05/21 06:55:05;;;;;;;7.30;2.47;;;16.20;99.90;;;;;;4088305;29;20103;-83
2023/05/21 06:57:06;;;;;;;7.85;3.05;;;16.40;99.90;;;;;;4087005;29;20051;-83
2023/05/21 06:59:07;;;;;;;6.13;2.42;;;16.40;99.90;;;;;;4086894;29;20140;-83
2023/05/21 07:01:08;;;;;;;7.00;2.40;;;16.50;99.90;;;;;;4086700;29;20043;-83
2023/05/21 07:03:08;;;;;;;5.63;2.65;;;16.60;99.90;;;;;;4088099;29;20054;-83
2023/05/21 07:05:09;;;;;;;6.90;2.15;;;16.70;99.90;;;;;;4088053;29;20044;-81
2023/05/21 07:07:10;;;;;;;4.63;2.65;;;16.70;99.90;;;;;;4086749;29;20107;-83
2023/05/21 07:09:11;;;;;;;5.22;1.98;;;16.80;99.90;;;;;;4070999;29;20056;-83
2023/05/21 07:11:11;;;;;;;8.07;2.83;;;16.80;99.90;;;;;;4087022;29;20090;-83
2023/05/21 07:13:12;;;;;;;3.90;2.33;;;16.80;99.90;;;;;;4087369;29;20141;-83
2023/05/21 07:15:13;;;;;;;5.93;2.15;;;16.90;99.90;;;;;;4086956;29;20048;-83
2023/05/21 07:17:14;;;;;;;5.95;2.20;;;17.00;99.90;;;;;;4087092;29;20055;-83
2023/05/21 07:19:15;;;;;;;6.10;1.90;;;17.10;99.90;;;;;;4069315;29;20644;-83
2023/05/21 07:21:16;;;;;;;6.28;2.50;;;17.10;99.90;;;;;;4086838;29;20087;-83
2023/05/21 07:23:16;;;;;;;6.55;2.05;;;17.20;99.90;;;;;;4086907;29;20040;-83
2023/05/21 07:25:17;;;;;;;6.13;2.17;;;17.20;99.90;;;;;;4069368;29;20052;-83
2023/05/21 07:27:18;;;;;;;6.43;2.20;;;17.20;99.90;;;;;;4086754;29;20118;-82
2023/05/21 07:29:18;;;;;;;7.85;2.88;;;17.20;99.90;;;;;;4053631;29;20049;-82
2023/05/21 07:31:19;;;;;;;5.03;2.10;;;17.20;99.90;;;;;;4069502;29;20087;-83
2023/05/21 07:33:21;;;;;;;4.93;2.28;;;17.20;99.90;;;;;;4084159;29;20048;-83
2023/05/21 07:35:22;;;;;;;6.65;1.95;;;17.30;99.90;;;;;;4086851;29;20119;-83
2023/05/21 07:37:24;;;;;;;6.90;2.42;;;17.30;99.90;;;;;;4086682;29;20464;-81
2023/05/21 07:39:24;;;;;;;7.40;2.30;;;17.30;99.90;;;;;;4085782;29;20048;-83
2023/05/21 07:41:25;;;;;;;7.72;2.40;;;17.30;99.90;;;;;;4086381;29;20090;-83
2023/05/21 07:43:26;;;;;;;5.53;2.38;;;17.30;99.90;;;;;;4085819;29;20062;-83
2023/05/21 07:45:27;;;;;;;8.45;2.40;;;17.40;99.90;;;;;;4086544;29;20032;-83
2023/05/21 07:47:27;;;;;;;5.15;2.15;;;17.40;99.90;;;;;;4085117;29;20044;-83
2023/05/21 07:49:28;;;;;;;8.48;2.63;;;17.50;99.90;;;;;;4086185;29;20047;-83
2023/05/21 07:51:30;;;;;;;4.13;2.20;;;17.50;99.90;;;;;;4085859;29;20047;-83
2023/05/21 07:53:32;;;;;;;8.07;3.10;;;17.60;99.90;;;;;;4086979;29;20058;-83
2023/05/21 07:55:32;;;;;;;7.72;2.38;;;17.70;99.90;;;;;;4086421;29;20505;-82
2023/05/21 07:57:34;;;;;;;7.53;2.70;;;17.80;99.90;;;;;;4085951;29;20054;-83
2023/05/21 07:59:35;;;;;;;8.90;2.42;;;17.90;99.90;;;;;;4087388;29;20130;-82
2023/05/21 08:01:36;;;;;;;4.22;1.98;;;18.00;99.90;;;;;;4086463;29;20047;-83
2023/05/21 08:03:37;;;;;;;6.22;2.13;;;18.10;99.90;;;;;;4087389;29;20046;-83
2023/05/21 08:05:37;;;;;;;5.35;2.33;;;18.20;99.90;;;;;;4069799;29;20048;-83
2023/05/21 08:07:38;;;;;;;8.73;2.60;;;18.20;99.90;;;;;;4070484;29;20127;-83
2023/05/21 08:09:39;;;;;;;5.55;2.17;;;18.20;99.90;;;;;;4088097;29;20080;-83
2023/05/21 08:11:40;;;;;;;5.93;2.33;;;18.20;99.90;;;;;;4087197;29;20388;-83
2023/05/21 08:13:41;;;;;;;5.78;2.70;;;18.30;99.90;;;;;;4087597;29;20142;-83
2023/05/21 08:15:42;;;;;;;7.43;2.20;;;18.40;99.90;;;;;;4087101;29;20058;-83
2023/05/21 08:17:42;;;;;;;7.78;2.67;;;18.40;99.90;;;;;;4087720;29;20133;-82
2023/05/21 08:19:43;;;;;;;5.30;2.25;;;18.40;99.90;;;;;;4069583;29;20048;-83
2023/05/21 08:21:44;;;;;;;5.07;1.85;;;18.40;99.90;;;;;;4087885;29;20043;-83
2023/05/21 08:23:44;;;;;;;4.80;2.50;;;18.50;99.90;;;;;;4086128;29;20138;-82
2023/05/21 08:25:45;;;;;;;6.65;2.65;;;18.50;99.90;;;;;;4087630;29;20496;-82
2023/05/21 08:27:46;;;;;;;9.27;2.65;;;18.60;99.90;;;;;;4070409;29;20052;-83
2023/05/21 08:29:47;;;;;;;9.10;2.47;;;18.60;99.90;;;;;;4087382;29;20048;-82
2023/05/21 08:31:47;;;;;;;5.40;2.35;;;18.60;99.90;;;;;;4085896;29;20102;-83
2023/05/21 08:33:52;;;;;;;8.38;3.38;;;18.60;99.90;;;;;;4086636;29;20060;-83
2023/05/21 08:35:53;;;;;;;4.72;2.15;;;18.70;99.90;;;;;;4070246;29;20095;-82
2023/05/21 08:37:54;;;;;;;6.22;2.10;;;18.80;99.90;;;;;;4086686;29;20051;-84
2023/05/21 08:39:54;;;;;;;12.10;4.07;;;18.90;99.90;;;;;;4070833;29;20072;-82
2023/05/21 08:42:08;;;;;;;8.98;2.40;;;19.00;99.90;;;;;;4069325;29;20048;-83
2023/05/21 08:44:11;;;;;;;6.95;2.70;;;19.00;99.90;;;;;;4086834;29;20051;-82
2023/05/21 08:46:12;;;;;;;7.25;2.58;;;19.00;99.90;;;;;;4086493;29;20086;-83
2023/05/21 08:48:16;;;;;;;4.20;2.25;;;19.10;99.90;;;;;;4085616;29;20119;-83
2023/05/21 08:50:18;;;;;;;7.55;2.20;;;19.10;99.90;;;;;;4068750;29;20092;-82
2023/05/21 08:52:20;;;;;;;6.25;2.35;;;19.10;99.90;;;;;;4085494;29;20522;-83
2023/05/21 08:54:21;;;;;;;4.03;2.50;;;19.20;99.90;;;;;;4085768;29;20114;-82
2023/05/21 08:56:23;;;;;;;5.20;2.25;;;19.20;99.90;;;;;;4086372;29;20070;-83
2023/05/21 08:58:24;;;;;;;7.78;2.10;;;19.20;99.90;;;;;;4085534;29;20559;-83
2023/05/21 09:00:24;;;;;;;6.35;2.35;;;19.20;99.90;;;;;;4086697;29;20039;-83
2023/05/21 09:02:25;;;;;;;10.18;2.95;;;19.40;99.90;;;;;;4085193;29;20047;-82
2023/05/21 09:04:27;;;;;;;7.25;2.75;;;19.50;99.90;;;;;;4086938;29;20040;-83
2023/05/21 09:06:28;;;;;;;3.90;2.03;;;19.70;99.90;;;;;;4086006;29;20491;-82
2023/05/21 09:08:33;;;;;;;7.10;2.25;;;19.90;99.90;;;;;;4086055;29;20110;-83
2023/05/21 09:10:50;;;;;;;3.72;2.30;;;20.00;99.90;;;;;;4086485;29;20472;-83
2023/05/21 09:12:52;;;;;;;4.85;2.28;;;20.30;99.90;;;;;;4085881;29;20043;-83
2023/05/21 09:14:55;;;;;;;6.13;2.40;;;20.60;99.90;;;;;;4087131;29;20066;-83
2023/05/21 09:16:57;;;;;;;5.65;2.47;;;20.70;99.90;;;;;;4085476;29;20047;-82
2023/05/21 09:18:58;;;;;;;4.03;2.10;;;20.70;99.90;;;;;;4085882;29;20066;-83
2023/05/21 09:21:22;;;;;;;6.45;2.13;;;20.90;99.90;;;;;;4069028;29;20047;-83
2023/05/21 09:23:23;;;;;;;7.00;2.30;;;21.00;99.90;;;;;;4085513;29;20082;-82
2023/05/21 09:25:28;;;;;;;7.75;2.40;;;21.10;99.90;;;;;;4068714;29;20571;-82
2023/05/21 09:27:28;;;;;;;7.35;1.98;;;21.20;99.90;;;;;;4085103;29;20364;-82
2023/05/21 09:29:29;;;;;;;3.65;1.90;;;21.40;99.90;;;;;;4086142;29;20059;-82
2023/05/21 09:31:31;;;;;;;7.68;2.20;;;21.50;99.90;;;;;;4084650;29;20047;-82
2023/05/21 09:33:32;;;;;;;3.33;1.77;;;21.60;99.90;;;;;;4084646;29;20056;-82
2023/05/21 09:35:34;;;;;;;5.05;2.08;;;21.50;99.90;;;;;;4068893;29;20052;-83
2023/05/21 09:37:39;;;;;;;3.40;1.92;;;21.50;99.90;;;;;;4085131;29;20123;-83
2023/05/21 09:39:41;;;;;;;6.43;2.45;;;21.60;99.90;;;;;;4085656;29;20107;-83
2023/05/21 09:41:41;;;;;;;3.63;1.88;;;21.70;99.90;;;;;;4085683;29;20115;-83
2023/05/21 09:43:43;;;;;;;7.53;1.98;;;21.80;99.90;;;;;;4085840;29;20500;-83
2023/05/21 09:45:54;;;;;;;6.03;2.00;;;21.80;99.90;;;;;;4084424;29;20059;-82
2023/05/21 09:47:55;;;;;;;7.22;2.05;;;21.90;99.90;;;;;;4085546;29;20051;-83
2023/05/21 09:50:03;;;;;;;5.20;2.08;;;22.00;99.90;;;;;;4084822;29;20488;-84
2023/05/21 09:52:04;;;;;;;6.15;2.05;;;22.00;99.90;;;;;;4068819;29;20067;-83
2023/05/21 09:54:05;;;;;;;7.60;2.45;;;22.10;99.90;;;;;;4086238;29;20039;-83
2023/05/21 09:56:07;;;;;;;9.95;2.63;;;22.10;99.90;;;;;;4085901;29;20052;-84
2023/05/21 09:58:09;;;;;;;7.28;2.28;;;22.00;99.90;;;;;;4086952;29;20048;-82
2023/05/21 10:00:20;;;;;;;5.55;2.30;;;21.90;99.90;;;;;;4085296;29;20055;-82
2023/05/21 10:02:22;;;;;;;6.68;2.33;;;21.90;99.90;;;;;;4086232;29;20091;-83
2023/05/21 10:04:24;;;;;;;7.65;1.88;;;22.00;99.90;;;;;;4069807;29;20071;-83
2023/05/21 10:06:31;;;;;;;8.50;2.33;;;22.00;99.90;;;;;;4085839;29;20047;-83
2023/05/21 10:08:35;;;;;;;5.18;2.30;;;22.10;99.90;;;;;;4086964;29;20056;-83
2023/05/21 10:10:39;;;;;;;6.38;2.42;;;22.10;99.90;;;;;;4085742;29;20095;-84
2023/05/21 10:12:45;;;;;;;5.07;2.15;;;22.20;99.90;;;;;;4085248;29;20090;-84
2023/05/21 10:15:09;;;;;;;4.85;1.90;;;22.30;99.90;;;;;;4085387;29;20066;-84
2023/05/21 10:17:11;;;;;;;4.20;2.40;;;22.30;99.90;;;;;;4068706;29;20612;-84
2023/05/21 10:19:14;;;;;;;7.07;2.03;;;22.40;99.90;;;;;;4068747;29;20445;-83
2023/05/21 10:21:16;;;;;;;7.50;2.08;;;22.50;99.90;;;;;;4088465;29;20062;-84
2023/05/21 10:23:18;;;;;;;6.40;2.00;;;22.60;99.90;;;;;;4087194;29;20040;-84
2023/05/21 10:25:21;;;;;;;7.82;2.03;;;22.50;99.90;;;;;;4089200;29;20063;-83
2023/05/21 10:27:23;;;;;;;5.32;2.20;;;22.50;99.90;;;;;;4087957;29;20142;-84
2023/05/21 10:29:24;;;;;;;9.45;3.22;;;22.50;99.90;;;;;;4072076;29;20066;-84
2023/05/21 10:31:26;;;;;;;5.30;2.10;;;22.50;99.90;;;;;;4088610;29;20048;-84
2023/05/21 10:33:28;;;;;;;12.13;3.33;;;22.60;99.90;;;;;;4072022;29;20422;-84
2023/05/21 10:35:29;;;;;;;3.60;2.38;;;22.60;99.90;;;;;;4088361;29;20044;-84
2023/05/21 10:37:31;;;;;;;5.38;1.77;;;22.60;99.90;;;;;;4087709;29;20051;-83
2023/05/21 10:39:33;;;;;;;5.93;2.03;;;22.70;99.90;;;;;;4088628;29;20047;-82
2023/05/21 10:41:45;;;;;;;12.38;2.25;;;22.80;99.90;;;;;;4087768;29;20044;-83
2023/05/21 10:43:58;;;;;;;5.43;2.40;;;22.80;99.90;;;;;;4087766;29;20074;-82
2023/05/21 10:45:59;;;;;;;8.20;3.08;;;;;;;;;;4071718;29;20044;-83
2023/05/21 10:48:01;;;;;;;6.47;1.90;;;;;;;;;;4087369;29;20050;-83
2023/05/21 10:50:28;;;;;;;6.45;2.63;;;;;;;;;;4088233;29;20059;-83
2023/05/21 10:52:38;;;;;;;5.90;2.13;;;;;;;;;;4087672;29;20047;-82
2023/05/21 10:54:51;;;;;;;7.25;2.35;;;;;;;;;;4086639;29;20047;-83
2023/05/21 10:56:52;;;;;;;4.95;1.90;;;;;;;;;;4086649;29;20084;-84
2023/05/21 10:58:56;;;;;;;8.15;2.20;;;;;;;;;;4087404;29;20397;-87
2023/05/21 11:00:58;;;;;;;5.82;2.55;;;;;;;;;;4086968;29;20081;-84
2023/05/21 11:03:01;;;;;;;5.03;2.42;;;;;;;;;;4088547;29;20044;-84
2023/05/21 11:05:03;;;;;;;8.95;2.20;;;;;;;;;;4085898;29;20060;-84
2023/05/21 11:07:04;;;;;;;6.28;2.55;;;23.10;99.90;;;;;;4056116;29;20186;-84
2023/05/21 11:09:12;;;;;;;5.20;2.08;;;;;;;;;;4072004;29;20139;-84
2023/05/21 11:11:47;;;;;;;8.70;2.70;;;24.20;99.10;;;;;;4070956;29;20052;-85
2023/05/21 11:13:48;;;;;;;8.73;2.50;;;24.20;98.80;;;;;;4070378;29;20064;-85
2023/05/21 11:15:57;;;;;;;9.85;2.50;;;24.20;99.00;;;;;;4053366;29;20148;-85
2023/05/21 11:17:58;;;;;;;5.85;2.60;;;24.10;98.80;;;;;;4070248;29;20040;-85
2023/05/21 11:20:06;;;;;;;9.07;2.55;;;24.10;98.80;;;;;;4071123;29;20411;-85
2023/05/21 11:22:22;;;;;;;4.45;2.70;;;24.00;98.50;;;;;;4071434;29;20036;-84
2023/05/21 11:24:24;;;;;;;5.07;2.75;;;24.10;98.80;;;;;;4071684;29;20044;-84
2023/05/21 11:26:27;;;;;;;9.85;2.55;;;24.20;98.60;;;;;;4072412;29;20048;-84
2023/05/21 11:28:34;;;;;;;11.45;4.45;;;24.40;98.40;;;;;;4072271;29;20442;-84
2023/05/21 11:30:35;;;;;;;6.15;2.85;;;24.50;98.50;;;;;;4071692;29;20044;-85
2023/05/21 11:33:00;;;;;;;11.98;3.30;;;24.40;98.40;;;;;;4071139;29;20055;-85
2023/05/21 11:35:01;;;;;;;7.90;3.45;;;24.40;98.20;;;;;;4070756;29;20052;-85
2023/05/21 11:37:17;;;;;;;8.27;2.97;;;;;;;;;;4070183;29;20511;-85
2023/05/21 11:39:21;;;;;;;8.77;4.43;;;;;;;;;;4071761;29;20065;-85
2023/05/21 11:41:22;;;;;;;7.88;3.10;;;;;;;;;;4054457;29;20053;-84
2023/05/21 11:43:23;;;;;;;7.30;2.88;;;;;;;;;;4038772;29;20128;-85
2023/05/21 11:45:28;;;;;;;7.55;3.10;;;;;;;;;;4054665;29;20044;-84
2023/05/21 11:47:30;;;;;;;7.25;3.47;;;24.50;98.40;;;;;;4070902;29;20048;-85
2023/05/21 11:49:31;;;;;;;8.27;3.42;;;24.70;98.00;;;;;;4071137;29;20489;-85
2023/05/21 11:51:32;;;;;;;5.85;2.80;;;24.80;97.90;;;;;;4069994;29;20090;-85
2023/05/21 11:53:33;;;;;;;7.10;3.53;;;;;;;;;;4070442;29;20075;-85
2023/05/21 11:55:42;;;;;;;8.73;3.55;;;;;;;;;;4038470;29;20057;-84